الصفحة الرئيسية
METAR-TAF:

METAR-TAF

مطار :

فور دو فرانس, مارتينيك

دائرة عرض: 14-36N, خط طول: 061-00W, ارتفاع: 5 متر

مراقبة الطقس الحالي

تاريخ ووقت الإصدار 21 دقيقة قبل الساعة 09:30UTC
ريح 11 عقدة من الشرق
درجة الحرارة 26°درجة مئوية
الرطوبة 84%
ضغط 1016 hPa
الرؤية 10 كم أو أكثر
غيوم قليلة على ارتفاع 2200 قدم
غيوم متفرقة على ارتفاع 2900 قدم

METAR: TFFF 250930Z AUTO 10011KT 9999 FEW022 SCT029 26/23 Q1016 TEMPO 09015G25KT 4000 SHRA BKN015CB

زمن: 05:51 (09:51 UTC)

توقعات

تاريخ ووقت الإصدار 4ساعات و 51 دقيقة قبل الساعة 05:00UTC
التوقعات صالحة من25 الساعة 06 UTC إلى 26 الساعة 06 UTC
ريح 10 عقدة من الشرق
الرؤية 10 كم أو أكثر
غيوم متفرقة على ارتفاع 2000 قدم
غيوم متفرقة على ارتفاع 3000 قدم
نظرية الاحتمالات 40% :
مؤقت
من 25 الساعة 06 UTC إلى 25 الساعة 21 UTC
ريح 15 عقدة من الشرق تتزايد حتى 25 عقدة
نظرية الاحتمالات 30% :
مؤقت
من 25 الساعة 06 UTC إلى 25 الساعة 15 UTC
الرؤية: 4000 متر
غيوم مفككة على ارتفاع 1500 قدم, مزنة ركامية.
زخات من المطر

TAF: TFFF 250500Z 2506/2606 09010KT 9999 SCT020 SCT030 PROB40 TEMPO 2506/2521 09015G25KT PROB30 TEMPO 2506/2515 4000 SHRA BKN015CB

أرصاد الطقس والتوقعات من أكثر من 4000 مطار (تقارير الطقس للمطار METAR والتنبؤ بالطقس بالمطارTAF).

المحطات المتاحة هي النقط الصفراء والحمراء على الخريطة.

حرك المؤشر فوق النقطة لمعرفة اسم المحطة.

ثم انقر لمعرفة أرصاد وتوقعات الطقس.

لتغيير الخارطة: اضغط على الأزرار الخضراء مع رمز الصليب الأسود للتكبير. على الزر الأخضر مع شرطة للتصغير، أو على الأسهم الخضراء للخرائط المجاورة.


METAR-TAF: